sensor_id;sensor_type;location;lat;lon;timestamp;P1;durP1;ratioP1;P2;durP2;ratioP2
21360;SDS011;10839;43.206;23.550;2023-02-01T00:00:00;5.50;;;1.70;;
21360;SDS011;10839;43.206;23.550;2023-02-01T00:02:27;3.95;;;1.63;;
21360;SDS011;10839;43.206;23.550;2023-02-01T00:04:53;4.57;;;1.70;;
21360;SDS011;10839;43.206;23.550;2023-02-01T00:07:19;2.85;;;1.77;;
21360;SDS011;10839;43.206;23.550;2023-02-01T00:09:44;2.97;;;1.83;;
21360;SDS011;10839;43.206;23.550;2023-02-01T00:12:10;4.70;;;1.77;;
21360;SDS011;10839;43.206;23.550;2023-02-01T00:14:37;4.75;;;1.45;;
21360;SDS011;10839;43.206;23.550;2023-02-01T00:17:05;3.38;;;2.10;;
21360;SDS011;10839;43.206;23.550;2023-02-01T00:19:32;4.80;;;1.58;;
21360;SDS011;10839;43.206;23.550;2023-02-01T00:21:58;5.53;;;1.63;;
21360;SDS011;10839;43.206;23.550;2023-02-01T00:24:25;3.42;;;1.75;;
21360;SDS011;10839;43.206;23.550;2023-02-01T00:26:50;5.38;;;2.05;;
21360;SDS011;10839;43.206;23.550;2023-02-01T00:29:17;3.13;;;1.83;;
21360;SDS011;10839;43.206;23.550;2023-02-01T00:31:45;4.03;;;1.85;;
21360;SDS011;10839;43.206;23.550;2023-02-01T00:34:12;4.32;;;2.00;;
21360;SDS011;10839;43.206;23.550;2023-02-01T00:36:41;2.17;;;1.73;;
21360;SDS011;10839;43.206;23.550;2023-02-01T00:39:08;4.68;;;2.00;;
21360;SDS011;10839;43.206;23.550;2023-02-01T00:41:36;4.25;;;1.83;;
21360;SDS011;10839;43.206;23.550;2023-02-01T00:44:02;6.20;;;2.10;;
21360;SDS011;10839;43.206;23.550;2023-02-01T00:46:29;4.75;;;2.30;;
21360;SDS011;10839;43.206;23.550;2023-02-01T00:48:55;6.15;;;2.35;;
21360;SDS011;10839;43.206;23.550;2023-02-01T00:51:22;4.35;;;2.40;;
21360;SDS011;10839;43.206;23.550;2023-02-01T00:53:50;5.75;;;2.78;;
21360;SDS011;10839;43.206;23.550;2023-02-01T00:56:16;4.60;;;2.42;;
21360;SDS011;10839;43.206;23.550;2023-02-01T00:58:42;4.25;;;2.60;;
21360;SDS011;10839;43.206;23.550;2023-02-01T01:01:16;5.85;;;2.85;;
21360;SDS011;10839;43.206;23.550;2023-02-01T01:03:48;4.28;;;2.20;;
21360;SDS011;10839;43.206;23.550;2023-02-01T01:06:20;4.43;;;2.42;;
21360;SDS011;10839;43.206;23.550;2023-02-01T01:08:52;6.13;;;2.38;;
21360;SDS011;10839;43.206;23.550;2023-02-01T01:11:22;3.90;;;2.20;;
21360;SDS011;10839;43.206;23.550;2023-02-01T01:13:50;3.00;;;2.05;;
21360;SDS011;10839;43.206;23.550;2023-02-01T01:16:19;4.22;;;2.00;;
21360;SDS011;10839;43.206;23.550;2023-02-01T01:18:46;3.20;;;2.42;;
21360;SDS011;10839;43.206;23.550;2023-02-01T01:21:13;4.32;;;2.60;;
21360;SDS011;10839;43.206;23.550;2023-02-01T01:23:41;5.22;;;2.22;;
21360;SDS011;10839;43.206;23.550;2023-02-01T01:26:09;4.75;;;2.63;;
21360;SDS011;10839;43.206;23.550;2023-02-01T01:28:39;4.25;;;1.80;;
21360;SDS011;10839;43.206;23.550;2023-02-01T01:31:14;5.43;;;2.83;;
21360;SDS011;10839;43.206;23.550;2023-02-01T01:33:43;5.32;;;2.63;;
21360;SDS011;10839;43.206;23.550;2023-02-01T01:36:10;5.70;;;2.33;;
21360;SDS011;10839;43.206;23.550;2023-02-01T01:38:38;5.05;;;2.38;;
21360;SDS011;10839;43.206;23.550;2023-02-01T01:41:05;4.20;;;2.13;;
21360;SDS011;10839;43.206;23.550;2023-02-01T01:46:17;2.40;;;1.50;;
21360;SDS011;10839;43.206;23.550;2023-02-01T01:48:45;4.13;;;1.42;;
21360;SDS011;10839;43.206;23.550;2023-02-01T01:51:13;5.07;;;1.65;;
21360;SDS011;10839;43.206;23.550;2023-02-01T01:53:45;4.05;;;1.55;;
21360;SDS011;10839;43.206;23.550;2023-02-01T01:56:21;2.88;;;1.40;;
21360;SDS011;10839;43.206;23.550;2023-02-01T01:58:48;2.72;;;1.48;;
21360;SDS011;10839;43.206;23.550;2023-02-01T02:01:14;4.10;;;1.50;;
21360;SDS011;10839;43.206;23.550;2023-02-01T02:03:41;3.50;;;1.60;;
21360;SDS011;10839;43.206;23.550;2023-02-01T02:08:56;3.60;;;1.50;;
21360;SDS011;10839;43.206;23.550;2023-02-01T02:11:22;4.07;;;1.50;;
21360;SDS011;10839;43.206;23.550;2023-02-01T02:13:49;1.30;;;1.13;;
21360;SDS011;10839;43.206;23.550;2023-02-01T02:22:40;2.35;;;0.98;;
21360;SDS011;10839;43.206;23.550;2023-02-01T02:25:00;4.28;;;1.52;;
21360;SDS011;10839;43.206;23.550;2023-02-01T02:33:38;2.13;;;1.00;;
21360;SDS011;10839;43.206;23.550;2023-02-01T02:47:40;1.33;;;0.95;;
21360;SDS011;10839;43.206;23.550;2023-02-01T02:50:20;2.75;;;1.05;;
21360;SDS011;10839;43.206;23.550;2023-02-01T02:53:19;1.67;;;1.00;;
21360;SDS011;10839;43.206;23.550;2023-02-01T02:56:08;3.15;;;1.15;;
21360;SDS011;10839;43.206;23.550;2023-02-01T02:58:56;2.17;;;1.20;;
21360;SDS011;10839;43.206;23.550;2023-02-01T03:01:42;2.30;;;1.05;;
21360;SDS011;10839;43.206;23.550;2023-02-01T03:04:27;2.55;;;0.90;;
21360;SDS011;10839;43.206;23.550;2023-02-01T03:06:54;2.38;;;0.93;;
21360;SDS011;10839;43.206;23.550;2023-02-01T03:09:26;2.85;;;1.00;;
21360;SDS011;10839;43.206;23.550;2023-02-01T03:12:00;2.35;;;0.80;;
21360;SDS011;10839;43.206;23.550;2023-02-01T03:14:50;1.65;;;0.70;;
21360;SDS011;10839;43.206;23.550;2023-02-01T03:17:21;2.13;;;0.70;;
21360;SDS011;10839;43.206;23.550;2023-02-01T03:19:53;1.90;;;0.70;;
21360;SDS011;10839;43.206;23.550;2023-02-01T03:22:24;1.67;;;0.80;;
21360;SDS011;10839;43.206;23.550;2023-02-01T03:25:05;13.80;;;5.07;;
21360;SDS011;10839;43.206;23.550;2023-02-01T03:30:09;5.10;;;2.03;;
21360;SDS011;10839;43.206;23.550;2023-02-01T03:32:45;7.10;;;2.53;;
21360;SDS011;10839;43.206;23.550;2023-02-01T03:40:48;3.20;;;1.20;;
21360;SDS011;10839;43.206;23.550;2023-02-01T03:43:19;3.25;;;1.10;;
21360;SDS011;10839;43.206;23.550;2023-02-01T03:45:57;1.90;;;1.20;;
21360;SDS011;10839;43.206;23.550;2023-02-01T03:48:27;5.13;;;1.83;;
21360;SDS011;10839;43.206;23.550;2023-02-01T03:50:57;6.82;;;2.67;;
21360;SDS011;10839;43.206;23.550;2023-02-01T03:53:27;12.60;;;5.32;;
21360;SDS011;10839;43.206;23.550;2023-02-01T03:55:55;9.32;;;3.97;;
21360;SDS011;10839;43.206;23.550;2023-02-01T03:58:22;9.68;;;3.95;;
21360;SDS011;10839;43.206;23.550;2023-02-01T04:00:55;6.00;;;2.50;;
21360;SDS011;10839;43.206;23.550;2023-02-01T04:03:23;2.28;;;1.70;;
21360;SDS011;10839;43.206;23.550;2023-02-01T04:05:51;2.55;;;1.35;;
21360;SDS011;10839;43.206;23.550;2023-02-01T04:08:22;4.05;;;1.60;;
21360;SDS011;10839;43.206;23.550;2023-02-01T04:10:50;3.03;;;1.45;;
21360;SDS011;10839;43.206;23.550;2023-02-01T04:13:16;4.35;;;1.20;;
21360;SDS011;10839;43.206;23.550;2023-02-01T04:15:42;2.47;;;0.90;;
21360;SDS011;10839;43.206;23.550;2023-02-01T04:18:08;2.05;;;1.00;;
21360;SDS011;10839;43.206;23.550;2023-02-01T04:20:34;2.50;;;0.80;;
21360;SDS011;10839;43.206;23.550;2023-02-01T04:23:00;1.77;;;0.50;;
21360;SDS011;10839;43.206;23.550;2023-02-01T04:25:28;3.88;;;1.48;;
21360;SDS011;10839;43.206;23.550;2023-02-01T04:27:55;7.85;;;3.60;;
21360;SDS011;10839;43.206;23.550;2023-02-01T04:30:20;5.40;;;2.00;;
21360;SDS011;10839;43.206;23.550;2023-02-01T04:32:46;5.72;;;2.30;;
21360;SDS011;10839;43.206;23.550;2023-02-01T04:35:12;2.33;;;1.40;;
21360;SDS011;10839;43.206;23.550;2023-02-01T04:37:38;3.65;;;1.33;;
21360;SDS011;10839;43.206;23.550;2023-02-01T04:40:04;2.75;;;1.38;;
21360;SDS011;10839;43.206;23.550;2023-02-01T04:42:30;3.00;;;1.27;;
21360;SDS011;10839;43.206;23.550;2023-02-01T04:44:56;1.80;;;1.15;;
21360;SDS011;10839;43.206;23.550;2023-02-01T04:47:22;3.88;;;0.85;;
21360;SDS011;10839;43.206;23.550;2023-02-01T04:49:48;3.40;;;1.63;;
21360;SDS011;10839;43.206;23.550;2023-02-01T04:52:14;3.42;;;1.20;;
21360;SDS011;10839;43.206;23.550;2023-02-01T04:54:39;5.68;;;1.48;;
21360;SDS011;10839;43.206;23.550;2023-02-01T04:57:05;3.55;;;1.48;;
21360;SDS011;10839;43.206;23.550;2023-02-01T04:59:31;4.30;;;1.20;;
21360;SDS011;10839;43.206;23.550;2023-02-01T05:01:57;6.60;;;2.63;;
21360;SDS011;10839;43.206;23.550;2023-02-01T05:04:23;12.65;;;3.97;;
21360;SDS011;10839;43.206;23.550;2023-02-01T05:06:50;12.77;;;5.15;;
21360;SDS011;10839;43.206;23.550;2023-02-01T05:09:16;8.15;;;4.43;;
21360;SDS011;10839;43.206;23.550;2023-02-01T05:11:42;5.95;;;2.58;;
21360;SDS011;10839;43.206;23.550;2023-02-01T05:14:26;4.95;;;2.45;;
21360;SDS011;10839;43.206;23.550;2023-02-01T05:16:52;7.32;;;2.13;;
21360;SDS011;10839;43.206;23.550;2023-02-01T05:19:18;4.38;;;1.65;;
21360;SDS011;10839;43.206;23.550;2023-02-01T05:21:44;3.20;;;1.20;;
21360;SDS011;10839;43.206;23.550;2023-02-01T05:24:10;1.80;;;1.15;;
21360;SDS011;10839;43.206;23.550;2023-02-01T05:26:38;4.78;;;1.48;;
21360;SDS011;10839;43.206;23.550;2023-02-01T05:29:06;3.17;;;1.48;;
21360;SDS011;10839;43.206;23.550;2023-02-01T05:31:33;2.42;;;1.08;;
21360;SDS011;10839;43.206;23.550;2023-02-01T05:34:00;3.42;;;1.70;;
21360;SDS011;10839;43.206;23.550;2023-02-01T05:36:26;4.60;;;1.73;;
21360;SDS011;10839;43.206;23.550;2023-02-01T05:38:52;4.88;;;1.40;;
21360;SDS011;10839;43.206;23.550;2023-02-01T05:41:18;2.20;;;1.55;;
21360;SDS011;10839;43.206;23.550;2023-02-01T05:43:44;1.60;;;1.25;;
21360;SDS011;10839;43.206;23.550;2023-02-01T05:46:09;3.65;;;1.40;;
21360;SDS011;10839;43.206;23.550;2023-02-01T05:48:38;6.05;;;1.73;;
21360;SDS011;10839;43.206;23.550;2023-02-01T05:51:05;4.47;;;1.75;;
21360;SDS011;10839;43.206;23.550;2023-02-01T05:53:31;27.27;;;10.20;;
21360;SDS011;10839;43.206;23.550;2023-02-01T05:55:57;7.93;;;2.10;;
21360;SDS011;10839;43.206;23.550;2023-02-01T05:58:23;4.72;;;1.75;;
21360;SDS011;10839;43.206;23.550;2023-02-01T06:00:50;2.72;;;1.50;;
21360;SDS011;10839;43.206;23.550;2023-02-01T06:03:16;6.80;;;2.03;;
21360;SDS011;10839;43.206;23.550;2023-02-01T06:05:45;4.28;;;1.45;;
21360;SDS011;10839;43.206;23.550;2023-02-01T06:08:13;3.78;;;1.40;;
21360;SDS011;10839;43.206;23.550;2023-02-01T06:10:39;4.32;;;1.77;;
21360;SDS011;10839;43.206;23.550;2023-02-01T06:13:05;4.43;;;1.98;;
21360;SDS011;10839;43.206;23.550;2023-02-01T06:15:31;8.82;;;2.22;;
21360;SDS011;10839;43.206;23.550;2023-02-01T06:17:58;8.25;;;2.30;;
21360;SDS011;10839;43.206;23.550;2023-02-01T06:20:24;5.07;;;2.72;;
21360;SDS011;10839;43.206;23.550;2023-02-01T06:22:50;8.07;;;3.28;;
21360;SDS011;10839;43.206;23.550;2023-02-01T06:25:17;7.05;;;3.28;;
21360;SDS011;10839;43.206;23.550;2023-02-01T06:27:44;8.60;;;3.70;;
21360;SDS011;10839;43.206;23.550;2023-02-01T06:30:10;9.02;;;4.20;;
21360;SDS011;10839;43.206;23.550;2023-02-01T06:32:41;10.25;;;4.10;;
21360;SDS011;10839;43.206;23.550;2023-02-01T06:35:08;7.10;;;3.42;;
21360;SDS011;10839;43.206;23.550;2023-02-01T06:37:37;5.65;;;2.10;;
21360;SDS011;10839;43.206;23.550;2023-02-01T06:40:03;8.07;;;3.08;;
21360;SDS011;10839;43.206;23.550;2023-02-01T06:42:30;9.95;;;3.95;;
21360;SDS011;10839;43.206;23.550;2023-02-01T06:44:56;9.00;;;4.53;;
21360;SDS011;10839;43.206;23.550;2023-02-01T06:47:21;11.57;;;5.50;;
21360;SDS011;10839;43.206;23.550;2023-02-01T06:49:47;17.75;;;7.15;;
21360;SDS011;10839;43.206;23.550;2023-02-01T06:52:13;18.38;;;7.78;;
21360;SDS011;10839;43.206;23.550;2023-02-01T06:54:42;11.45;;;4.00;;
21360;SDS011;10839;43.206;23.550;2023-02-01T06:57:07;10.27;;;3.80;;
21360;SDS011;10839;43.206;23.550;2023-02-01T06:59:33;10.63;;;3.88;;
21360;SDS011;10839;43.206;23.550;2023-02-01T07:01:59;6.82;;;3.08;;
21360;SDS011;10839;43.206;23.550;2023-02-01T07:04:46;4.72;;;2.28;;
21360;SDS011;10839;43.206;23.550;2023-02-01T07:07:12;4.03;;;1.60;;
21360;SDS011;10839;43.206;23.550;2023-02-01T07:09:38;5.32;;;1.92;;
21360;SDS011;10839;43.206;23.550;2023-02-01T07:12:04;7.50;;;1.55;;
21360;SDS011;10839;43.206;23.550;2023-02-01T07:14:30;4.68;;;1.52;;
21360;SDS011;10839;43.206;23.550;2023-02-01T07:16:56;3.28;;;1.73;;
21360;SDS011;10839;43.206;23.550;2023-02-01T07:19:22;4.68;;;1.77;;
21360;SDS011;10839;43.206;23.550;2023-02-01T07:21:48;3.67;;;1.38;;
21360;SDS011;10839;43.206;23.550;2023-02-01T07:24:13;3.88;;;1.55;;
21360;SDS011;10839;43.206;23.550;2023-02-01T07:26:40;3.00;;;1.45;;
21360;SDS011;10839;43.206;23.550;2023-02-01T07:29:05;4.63;;;1.48;;
21360;SDS011;10839;43.206;23.550;2023-02-01T07:31:31;1.55;;;0.88;;
21360;SDS011;10839;43.206;23.550;2023-02-01T07:33:57;4.35;;;1.27;;
21360;SDS011;10839;43.206;23.550;2023-02-01T07:36:24;4.13;;;1.30;;
21360;SDS011;10839;43.206;23.550;2023-02-01T07:38:50;2.35;;;1.20;;
21360;SDS011;10839;43.206;23.550;2023-02-01T07:41:17;4.85;;;1.27;;
21360;SDS011;10839;43.206;23.550;2023-02-01T07:43:43;3.70;;;0.88;;
21360;SDS011;10839;43.206;23.550;2023-02-01T07:46:10;2.00;;;1.10;;
21360;SDS011;10839;43.206;23.550;2023-02-01T07:48:40;2.75;;;1.13;;
21360;SDS011;10839;43.206;23.550;2023-02-01T07:51:11;2.90;;;1.10;;
21360;SDS011;10839;43.206;23.550;2023-02-01T07:53:39;2.95;;;1.40;;
21360;SDS011;10839;43.206;23.550;2023-02-01T07:56:16;2.10;;;1.23;;
21360;SDS011;10839;43.206;23.550;2023-02-01T07:58:48;5.25;;;1.67;;
21360;SDS011;10839;43.206;23.550;2023-02-01T08:01:22;4.43;;;1.38;;
21360;SDS011;10839;43.206;23.550;2023-02-01T08:03:51;2.60;;;1.48;;
21360;SDS011;10839;43.206;23.550;2023-02-01T08:06:18;3.20;;;1.17;;
21360;SDS011;10839;43.206;23.550;2023-02-01T08:08:45;7.03;;;2.25;;
21360;SDS011;10839;43.206;23.550;2023-02-01T08:11:12;3.80;;;1.85;;
21360;SDS011;10839;43.206;23.550;2023-02-01T08:13:39;8.45;;;1.85;;
21360;SDS011;10839;43.206;23.550;2023-02-01T08:16:06;4.20;;;1.75;;
21360;SDS011;10839;43.206;23.550;2023-02-01T08:18:34;4.32;;;1.38;;
21360;SDS011;10839;43.206;23.550;2023-02-01T08:21:23;2.13;;;1.05;;
21360;SDS011;10839;43.206;23.550;2023-02-01T08:23:49;2.95;;;1.30;;
21360;SDS011;10839;43.206;23.550;2023-02-01T08:26:17;4.28;;;1.13;;
21360;SDS011;10839;43.206;23.550;2023-02-01T08:28:48;2.88;;;1.10;;
21360;SDS011;10839;43.206;23.550;2023-02-01T08:31:19;2.67;;;1.27;;
21360;SDS011;10839;43.206;23.550;2023-02-01T08:33:48;2.88;;;1.33;;
21360;SDS011;10839;43.206;23.550;2023-02-01T08:36:16;6.05;;;2.47;;
21360;SDS011;10839;43.206;23.550;2023-02-01T08:38:43;5.25;;;1.73;;
21360;SDS011;10839;43.206;23.550;2023-02-01T08:41:10;4.60;;;1.55;;
21360;SDS011;10839;43.206;23.550;2023-02-01T08:43:41;5.97;;;2.60;;
21360;SDS011;10839;43.206;23.550;2023-02-01T08:46:07;3.30;;;2.28;;
21360;SDS011;10839;43.206;23.550;2023-02-01T08:48:34;3.67;;;1.75;;
21360;SDS011;10839;43.206;23.550;2023-02-01T08:51:02;6.40;;;2.30;;
21360;SDS011;10839;43.206;23.550;2023-02-01T08:53:33;3.72;;;1.15;;
21360;SDS011;10839;43.206;23.550;2023-02-01T08:55:59;3.20;;;1.05;;
21360;SDS011;10839;43.206;23.550;2023-02-01T08:58:26;4.45;;;1.45;;
21360;SDS011;10839;43.206;23.550;2023-02-01T09:00:51;4.00;;;1.30;;
21360;SDS011;10839;43.206;23.550;2023-02-01T09:03:17;3.97;;;1.80;;
21360;SDS011;10839;43.206;23.550;2023-02-01T09:05:43;7.10;;;2.13;;
21360;SDS011;10839;43.206;23.550;2023-02-01T09:08:10;4.70;;;1.67;;
21360;SDS011;10839;43.206;23.550;2023-02-01T09:10:40;7.18;;;2.58;;
21360;SDS011;10839;43.206;23.550;2023-02-01T09:13:09;7.05;;;2.45;;
21360;SDS011;10839;43.206;23.550;2023-02-01T09:15:35;6.85;;;2.72;;
21360;SDS011;10839;43.206;23.550;2023-02-01T09:18:02;4.25;;;1.98;;
21360;SDS011;10839;43.206;23.550;2023-02-01T09:20:28;5.75;;;1.73;;
21360;SDS011;10839;43.206;23.550;2023-02-01T09:22:55;3.03;;;1.25;;
21360;SDS011;10839;43.206;23.550;2023-02-01T09:25:21;3.95;;;1.80;;
21360;SDS011;10839;43.206;23.550;2023-02-01T09:27:47;6.95;;;2.97;;
21360;SDS011;10839;43.206;23.550;2023-02-01T09:30:12;4.13;;;1.77;;
21360;SDS011;10839;43.206;23.550;2023-02-01T09:32:38;10.38;;;5.10;;
21360;SDS011;10839;43.206;23.550;2023-02-01T09:35:04;15.32;;;6.18;;
21360;SDS011;10839;43.206;23.550;2023-02-01T09:37:30;6.00;;;3.10;;
21360;SDS011;10839;43.206;23.550;2023-02-01T09:39:57;7.80;;;2.20;;
21360;SDS011;10839;43.206;23.550;2023-02-01T09:47:56;3.22;;;1.90;;
21360;SDS011;10839;43.206;23.550;2023-02-01T09:50:38;3.17;;;1.77;;
21360;SDS011;10839;43.206;23.550;2023-02-01T09:53:12;7.50;;;3.80;;
21360;SDS011;10839;43.206;23.550;2023-02-01T09:58:35;6.85;;;2.30;;
21360;SDS011;10839;43.206;23.550;2023-02-01T10:01:17;3.65;;;1.92;;
21360;SDS011;10839;43.206;23.550;2023-02-01T10:03:47;7.30;;;2.90;;
21360;SDS011;10839;43.206;23.550;2023-02-01T10:06:21;6.85;;;2.45;;
21360;SDS011;10839;43.206;23.550;2023-02-01T10:25:36;3.10;;;1.40;;
21360;SDS011;10839;43.206;23.550;2023-02-01T10:28:17;5.90;;;2.80;;
21360;SDS011;10839;43.206;23.550;2023-02-01T10:30:47;21.70;;;9.52;;
21360;SDS011;10839;43.206;23.550;2023-02-01T10:33:15;8.55;;;3.00;;
21360;SDS011;10839;43.206;23.550;2023-02-01T10:35:42;10.57;;;4.38;;
21360;SDS011;10839;43.206;23.550;2023-02-01T10:38:44;5.53;;;2.38;;
21360;SDS011;10839;43.206;23.550;2023-02-01T10:41:04;3.80;;;1.75;;
21360;SDS011;10839;43.206;23.550;2023-02-01T10:43:54;4.43;;;1.77;;
21360;SDS011;10839;43.206;23.550;2023-02-01T10:46:23;3.88;;;1.33;;
21360;SDS011;10839;43.206;23.550;2023-02-01T10:48:52;4.00;;;1.83;;
21360;SDS011;10839;43.206;23.550;2023-02-01T10:51:22;6.80;;;1.60;;
21360;SDS011;10839;43.206;23.550;2023-02-01T10:53:57;2.88;;;1.17;;
21360;SDS011;10839;43.206;23.550;2023-02-01T10:56:26;2.83;;;1.30;;
21360;SDS011;10839;43.206;23.550;2023-02-01T10:59:00;7.38;;;1.27;;
21360;SDS011;10839;43.206;23.550;2023-02-01T11:01:37;3.20;;;1.50;;
21360;SDS011;10839;43.206;23.550;2023-02-01T11:04:11;3.58;;;1.25;;
21360;SDS011;10839;43.206;23.550;2023-02-01T11:09:40;5.00;;;1.85;;
21360;SDS011;10839;43.206;23.550;2023-02-01T11:12:20;8.32;;;2.13;;
21360;SDS011;10839;43.206;23.550;2023-02-01T11:14:50;7.78;;;1.40;;
21360;SDS011;10839;43.206;23.550;2023-02-01T11:19:59;2.67;;;1.40;;
21360;SDS011;10839;43.206;23.550;2023-02-01T11:22:29;2.63;;;1.33;;
21360;SDS011;10839;43.206;23.550;2023-02-01T11:24:55;2.78;;;1.70;;
21360;SDS011;10839;43.206;23.550;2023-02-01T11:27:23;2.28;;;1.10;;
21360;SDS011;10839;43.206;23.550;2023-02-01T11:29:51;10.65;;;3.75;;
21360;SDS011;10839;43.206;23.550;2023-02-01T11:32:22;2.90;;;1.65;;
21360;SDS011;10839;43.206;23.550;2023-02-01T11:34:51;5.30;;;2.17;;
21360;SDS011;10839;43.206;23.550;2023-02-01T11:37:31;5.80;;;1.80;;
21360;SDS011;10839;43.206;23.550;2023-02-01T11:40:23;5.63;;;1.70;;
21360;SDS011;10839;43.206;23.550;2023-02-01T11:42:58;2.17;;;1.73;;
21360;SDS011;10839;43.206;23.550;2023-02-01T11:45:28;3.72;;;2.08;;
21360;SDS011;10839;43.206;23.550;2023-02-01T11:47:56;2.63;;;1.10;;
21360;SDS011;10839;43.206;23.550;2023-02-01T11:50:34;4.03;;;1.27;;
21360;SDS011;10839;43.206;23.550;2023-02-01T11:53:23;1.73;;;1.00;;
21360;SDS011;10839;43.206;23.550;2023-02-01T12:03:53;4.60;;;1.80;;
21360;SDS011;10839;43.206;23.550;2023-02-01T12:26:00;5.18;;;1.75;;
21360;SDS011;10839;43.206;23.550;2023-02-01T12:34:10;6.53;;;1.58;;
21360;SDS011;10839;43.206;23.550;2023-02-01T12:39:40;2.75;;;1.25;;
21360;SDS011;10839;43.206;23.550;2023-02-01T12:42:31;3.22;;;1.15;;
21360;SDS011;10839;43.206;23.550;2023-02-01T12:45:11;3.03;;;1.60;;
21360;SDS011;10839;43.206;23.550;2023-02-01T12:50:14;2.22;;;1.05;;
21360;SDS011;10839;43.206;23.550;2023-02-01T12:52:49;2.25;;;0.98;;
21360;SDS011;10839;43.206;23.550;2023-02-01T13:01:00;25.88;;;12.07;;
21360;SDS011;10839;43.206;23.550;2023-02-01T13:04:01;9.20;;;3.55;;
21360;SDS011;10839;43.206;23.550;2023-02-01T13:06:33;8.13;;;2.90;;
21360;SDS011;10839;43.206;23.550;2023-02-01T13:09:32;5.03;;;1.95;;
21360;SDS011;10839;43.206;23.550;2023-02-01T13:12:51;2.35;;;1.30;;
21360;SDS011;10839;43.206;23.550;2023-02-01T13:15:20;5.10;;;2.08;;
21360;SDS011;10839;43.206;23.550;2023-02-01T13:17:51;4.72;;;2.25;;
21360;SDS011;10839;43.206;23.550;2023-02-01T13:20:46;14.07;;;6.35;;
21360;SDS011;10839;43.206;23.550;2023-02-01T13:23:25;8.00;;;4.25;;
21360;SDS011;10839;43.206;23.550;2023-02-01T13:25:55;3.92;;;1.40;;
21360;SDS011;10839;43.206;23.550;2023-02-01T13:31:35;7.07;;;3.42;;
21360;SDS011;10839;43.206;23.550;2023-02-01T13:42:15;4.93;;;1.60;;
21360;SDS011;10839;43.206;23.550;2023-02-01T13:44:47;3.88;;;2.10;;
21360;SDS011;10839;43.206;23.550;2023-02-01T13:47:26;5.78;;;1.30;;
21360;SDS011;10839;43.206;23.550;2023-02-01T13:50:09;4.07;;;2.08;;
21360;SDS011;10839;43.206;23.550;2023-02-01T13:52:57;3.28;;;1.25;;
21360;SDS011;10839;43.206;23.550;2023-02-01T13:56:07;2.17;;;1.25;;
21360;SDS011;10839;43.206;23.550;2023-02-01T13:58:43;2.88;;;1.25;;
21360;SDS011;10839;43.206;23.550;2023-02-01T14:03:53;4.03;;;1.73;;
21360;SDS011;10839;43.206;23.550;2023-02-01T14:09:10;3.80;;;1.50;;
21360;SDS011;10839;43.206;23.550;2023-02-01T14:16:42;4.60;;;1.98;;
21360;SDS011;10839;43.206;23.550;2023-02-01T14:19:21;4.80;;;2.10;;
21360;SDS011;10839;43.206;23.550;2023-02-01T14:21:51;5.10;;;1.80;;
21360;SDS011;10839;43.206;23.550;2023-02-01T14:24:33;8.48;;;1.70;;
21360;SDS011;10839;43.206;23.550;2023-02-01T14:29:39;3.33;;;1.33;;
21360;SDS011;10839;43.206;23.550;2023-02-01T14:42:38;6.15;;;2.17;;
21360;SDS011;10839;43.206;23.550;2023-02-01T14:47:49;11.90;;;5.00;;
21360;SDS011;10839;43.206;23.550;2023-02-01T15:11:55;4.97;;;2.42;;
21360;SDS011;10839;43.206;23.550;2023-02-01T15:14:26;7.43;;;3.17;;
21360;SDS011;10839;43.206;23.550;2023-02-01T15:16:54;9.40;;;3.15;;
21360;SDS011;10839;43.206;23.550;2023-02-01T15:19:21;5.75;;;2.90;;
21360;SDS011;10839;43.206;23.550;2023-02-01T15:21:54;5.35;;;3.00;;
21360;SDS011;10839;43.206;23.550;2023-02-01T15:24:23;7.32;;;3.10;;
21360;SDS011;10839;43.206;23.550;2023-02-01T15:26:51;8.75;;;3.40;;
21360;SDS011;10839;43.206;23.550;2023-02-01T15:29:19;16.50;;;8.55;;
21360;SDS011;10839;43.206;23.550;2023-02-01T15:31:48;6.80;;;3.67;;
21360;SDS011;10839;43.206;23.550;2023-02-01T15:34:16;7.40;;;3.50;;
21360;SDS011;10839;43.206;23.550;2023-02-01T15:36:42;6.80;;;2.92;;
21360;SDS011;10839;43.206;23.550;2023-02-01T15:39:20;4.53;;;2.55;;
21360;SDS011;10839;43.206;23.550;2023-02-01T15:42:01;6.90;;;2.78;;
21360;SDS011;10839;43.206;23.550;2023-02-01T15:44:44;4.43;;;2.40;;
21360;SDS011;10839;43.206;23.550;2023-02-01T15:47:25;3.22;;;1.92;;
21360;SDS011;10839;43.206;23.550;2023-02-01T15:49:55;14.80;;;4.35;;
21360;SDS011;10839;43.206;23.550;2023-02-01T15:52:36;11.23;;;3.63;;
21360;SDS011;10839;43.206;23.550;2023-02-01T15:55:18;9.63;;;3.72;;
21360;SDS011;10839;43.206;23.550;2023-02-01T15:57:45;10.27;;;4.57;;
21360;SDS011;10839;43.206;23.550;2023-02-01T16:02:57;13.25;;;5.75;;
21360;SDS011;10839;43.206;23.550;2023-02-01T16:05:35;13.70;;;6.47;;
21360;SDS011;10839;43.206;23.550;2023-02-01T16:08:06;24.48;;;11.85;;
21360;SDS011;10839;43.206;23.550;2023-02-01T16:10:43;14.40;;;6.77;;
21360;SDS011;10839;43.206;23.550;2023-02-01T16:13:11;16.10;;;7.75;;
21360;SDS011;10839;43.206;23.550;2023-02-01T16:15:38;27.27;;;8.93;;
21360;SDS011;10839;43.206;23.550;2023-02-01T16:18:04;13.38;;;6.55;;
21360;SDS011;10839;43.206;23.550;2023-02-01T16:20:33;12.10;;;6.03;;
21360;SDS011;10839;43.206;23.550;2023-02-01T16:23:01;14.75;;;5.68;;
21360;SDS011;10839;43.206;23.550;2023-02-01T16:25:28;21.77;;;7.47;;
21360;SDS011;10839;43.206;23.550;2023-02-01T16:27:54;13.43;;;4.45;;
21360;SDS011;10839;43.206;23.550;2023-02-01T16:30:21;18.40;;;6.22;;
21360;SDS011;10839;43.206;23.550;2023-02-01T16:32:52;22.17;;;5.15;;
21360;SDS011;10839;43.206;23.550;2023-02-01T16:35:25;11.50;;;3.72;;
21360;SDS011;10839;43.206;23.550;2023-02-01T16:38:04;4.88;;;1.70;;
21360;SDS011;10839;43.206;23.550;2023-02-01T16:40:38;9.27;;;3.55;;
21360;SDS011;10839;43.206;23.550;2023-02-01T16:43:13;5.22;;;2.42;;
21360;SDS011;10839;43.206;23.550;2023-02-01T16:45:47;5.93;;;3.00;;
21360;SDS011;10839;43.206;23.550;2023-02-01T16:48:17;3.75;;;1.92;;
21360;SDS011;10839;43.206;23.550;2023-02-01T16:50:49;7.55;;;4.07;;
21360;SDS011;10839;43.206;23.550;2023-02-01T16:53:20;7.03;;;3.25;;
21360;SDS011;10839;43.206;23.550;2023-02-01T16:55:47;9.85;;;4.78;;
21360;SDS011;10839;43.206;23.550;2023-02-01T16:58:18;10.02;;;4.78;;
21360;SDS011;10839;43.206;23.550;2023-02-01T17:00:46;3.17;;;1.30;;
21360;SDS011;10839;43.206;23.550;2023-02-01T17:03:13;6.00;;;2.78;;
21360;SDS011;10839;43.206;23.550;2023-02-01T17:05:51;8.80;;;3.50;;
21360;SDS011;10839;43.206;23.550;2023-02-01T17:08:39;4.90;;;1.92;;
21360;SDS011;10839;43.206;23.550;2023-02-01T17:11:07;7.00;;;3.20;;
21360;SDS011;10839;43.206;23.550;2023-02-01T17:13:35;8.07;;;3.00;;
21360;SDS011;10839;43.206;23.550;2023-02-01T17:16:03;8.07;;;4.18;;
21360;SDS011;10839;43.206;23.550;2023-02-01T17:21:40;9.43;;;4.50;;
21360;SDS011;10839;43.206;23.550;2023-02-01T17:24:09;10.80;;;4.95;;
21360;SDS011;10839;43.206;23.550;2023-02-01T17:26:42;12.25;;;6.30;;
21360;SDS011;10839;43.206;23.550;2023-02-01T17:29:09;13.40;;;6.20;;
21360;SDS011;10839;43.206;23.550;2023-02-01T17:31:36;10.07;;;4.95;;
21360;SDS011;10839;43.206;23.550;2023-02-01T17:34:11;15.88;;;8.40;;
21360;SDS011;10839;43.206;23.550;2023-02-01T17:36:40;11.70;;;5.35;;
21360;SDS011;10839;43.206;23.550;2023-02-01T17:39:07;11.98;;;6.20;;
21360;SDS011;10839;43.206;23.550;2023-02-01T17:41:35;15.45;;;7.43;;
21360;SDS011;10839;43.206;23.550;2023-02-01T17:44:02;30.02;;;13.57;;
21360;SDS011;10839;43.206;23.550;2023-02-01T17:46:29;38.83;;;17.20;;
21360;SDS011;10839;43.206;23.550;2023-02-01T17:48:56;41.97;;;15.45;;